sensor_id;sensor_type;location;lat;lon;timestamp;pressure;altitude;pressure_sealevel;temperature
13497;BMP180;6820;49.374;8.452;2024-02-26T00:02:16;98613.16;;;16.29
13497;BMP180;6820;49.374;8.452;2024-02-26T00:06:18;98621.66;;;16.28
13497;BMP180;6820;49.374;8.452;2024-02-26T00:10:20;98625.88;;;16.24
13497;BMP180;6820;49.374;8.452;2024-02-26T00:14:21;98625.84;;;16.23
13497;BMP180;6820;49.374;8.452;2024-02-26T00:18:23;98629.19;;;16.17
13497;BMP180;6820;49.374;8.452;2024-02-26T00:22:25;98634.28;;;16.15
13497;BMP180;6820;49.374;8.452;2024-02-26T00:26:26;98643.69;;;16.16
13497;BMP180;6820;49.374;8.452;2024-02-26T00:30:28;98634.34;;;16.19
13497;BMP180;6820;49.374;8.452;2024-02-26T00:34:30;98638.59;;;16.20
13497;BMP180;6820;49.374;8.452;2024-02-26T00:38:32;98645.44;;;16.22
13497;BMP180;6820;49.374;8.452;2024-02-26T00:42:34;98639.44;;;16.20
13497;BMP180;6820;49.374;8.452;2024-02-26T00:46:36;98641.88;;;16.12
13497;BMP180;6820;49.374;8.452;2024-02-26T00:50:38;98641.81;;;16.06
13497;BMP180;6820;49.374;8.452;2024-02-26T00:54:39;98644.31;;;16.00
13497;BMP180;6820;49.374;8.452;2024-02-26T00:58:41;98649.41;;;16.01
13497;BMP180;6820;49.374;8.452;2024-02-26T01:02:42;98656.19;;;15.98
13497;BMP180;6820;49.374;8.452;2024-02-26T01:06:44;98661.22;;;15.92
13497;BMP180;6820;49.374;8.452;2024-02-26T01:10:46;98657.81;;;15.93
13497;BMP180;6820;49.374;8.452;2024-02-26T01:14:48;98665.56;;;15.97
13497;BMP180;6820;49.374;8.452;2024-02-26T01:18:50;98680.03;;;15.97
13497;BMP180;6820;49.374;8.452;2024-02-26T01:22:51;98691.09;;;15.97
13497;BMP180;6820;49.374;8.452;2024-02-26T01:26:53;98697.03;;;15.96
13497;BMP180;6820;49.374;8.452;2024-02-26T01:30:55;98702.94;;;15.92
13497;BMP180;6820;49.374;8.452;2024-02-26T01:34:57;98695.31;;;15.94
13497;BMP180;6820;49.374;8.452;2024-02-26T01:38:59;98695.28;;;15.92
13497;BMP180;6820;49.374;8.452;2024-02-26T01:43:01;98703.84;;;15.94
13497;BMP180;6820;49.374;8.452;2024-02-26T01:47:04;98699.50;;;15.89
13497;BMP180;6820;49.374;8.452;2024-02-26T01:51:07;98700.31;;;15.88
13497;BMP180;6820;49.374;8.452;2024-02-26T01:55:09;98702.03;;;15.86
13497;BMP180;6820;49.374;8.452;2024-02-26T01:59:11;98700.28;;;15.85
13497;BMP180;6820;49.374;8.452;2024-02-26T02:03:12;98707.16;;;15.89
13497;BMP180;6820;49.374;8.452;2024-02-26T02:07:15;98702.00;;;15.84
13497;BMP180;6820;49.374;8.452;2024-02-26T02:11:17;98697.81;;;15.89
13497;BMP180;6820;49.374;8.452;2024-02-26T02:15:19;98693.50;;;15.87
13497;BMP180;6820;49.374;8.452;2024-02-26T02:19:21;98695.22;;;15.88
13497;BMP180;6820;49.374;8.452;2024-02-26T02:23:23;98698.69;;;15.91
13497;BMP180;6820;49.374;8.452;2024-02-26T02:27:25;98701.25;;;15.91
13497;BMP180;6820;49.374;8.452;2024-02-26T02:31:27;98702.06;;;15.90
13497;BMP180;6820;49.374;8.452;2024-02-26T02:35:29;98701.19;;;15.88
13497;BMP180;6820;49.374;8.452;2024-02-26T02:39:31;98702.03;;;15.86
13497;BMP180;6820;49.374;8.452;2024-02-26T02:43:32;98698.63;;;15.87
13497;BMP180;6820;49.374;8.452;2024-02-26T02:47:37;98698.63;;;15.87
13497;BMP180;6820;49.374;8.452;2024-02-26T02:51:41;98698.69;;;15.91
13497;BMP180;6820;49.374;8.452;2024-02-26T02:55:43;98705.53;;;15.95
13497;BMP180;6820;49.374;8.452;2024-02-26T02:59:45;98709.88;;;15.99
13497;BMP180;6820;49.374;8.452;2024-02-26T03:03:47;98705.56;;;15.98
13497;BMP180;6820;49.374;8.452;2024-02-26T03:07:48;98703.88;;;15.99
13497;BMP180;6820;49.374;8.452;2024-02-26T03:11:50;98706.44;;;15.99
13497;BMP180;6820;49.374;8.452;2024-02-26T03:15:52;98706.44;;;15.99
13497;BMP180;6820;49.374;8.452;2024-02-26T03:19:53;98707.09;;;15.84
13497;BMP180;6820;49.374;8.452;2024-02-26T03:23:55;98706.13;;;15.77
13497;BMP180;6820;49.374;8.452;2024-02-26T03:27:58;98701.88;;;15.76
13497;BMP180;6820;49.374;8.452;2024-02-26T03:32:00;98697.56;;;15.73
13497;BMP180;6820;49.374;8.452;2024-02-26T03:36:02;98684.81;;;15.73
13497;BMP180;6820;49.374;8.452;2024-02-26T03:40:04;98689.00;;;15.70
13497;BMP180;6820;49.374;8.452;2024-02-26T03:44:06;98689.84;;;15.67
13497;BMP180;6820;49.374;8.452;2024-02-26T03:48:07;98679.50;;;15.61
13497;BMP180;6820;49.374;8.452;2024-02-26T03:52:09;98681.06;;;15.49
13497;BMP180;6820;49.374;8.452;2024-02-26T03:56:12;98681.00;;;15.46
13497;BMP180;6820;49.374;8.452;2024-02-26T04:00:15;98675.03;;;15.44
13497;BMP180;6820;49.374;8.452;2024-02-26T04:04:17;98670.81;;;15.46
13497;BMP180;6820;49.374;8.452;2024-02-26T04:08:18;98661.38;;;15.42
13497;BMP180;6820;49.374;8.452;2024-02-26T04:12:20;98658.84;;;15.44
13497;BMP180;6820;49.374;8.452;2024-02-26T04:16:22;98654.59;;;15.44
13497;BMP180;6820;49.374;8.452;2024-02-26T04:20:23;98652.88;;;15.42
13497;BMP180;6820;49.374;8.452;2024-02-26T04:24:25;98646.88;;;15.40
13497;BMP180;6820;49.374;8.452;2024-02-26T04:28:27;98649.41;;;15.40
13497;BMP180;6820;49.374;8.452;2024-02-26T04:32:31;98648.56;;;15.39
13497;BMP180;6820;49.374;8.452;2024-02-26T04:36:32;98646.03;;;15.39
13497;BMP180;6820;49.374;8.452;2024-02-26T04:40:34;98647.72;;;15.40
13497;BMP180;6820;49.374;8.452;2024-02-26T04:44:36;98646.03;;;15.39
13497;BMP180;6820;49.374;8.452;2024-02-26T04:48:38;98644.31;;;15.40
13497;BMP180;6820;49.374;8.452;2024-02-26T04:52:40;98651.19;;;15.44
13497;BMP180;6820;49.374;8.452;2024-02-26T04:56:42;98640.94;;;15.41
13497;BMP180;6820;49.374;8.452;2024-02-26T05:00:44;98657.97;;;15.43
13497;BMP180;6820;49.374;8.452;2024-02-26T05:04:46;98644.31;;;15.38
13497;BMP180;6820;49.374;8.452;2024-02-26T05:08:48;98655.38;;;15.40
13497;BMP180;6820;49.374;8.452;2024-02-26T05:12:49;98645.22;;;15.43
13497;BMP180;6820;49.374;8.452;2024-02-26T05:16:51;98653.63;;;15.38
13497;BMP180;6820;49.374;8.452;2024-02-26T05:20:52;98666.41;;;15.36
13497;BMP180;6820;49.374;8.452;2024-02-26T05:24:54;98657.84;;;15.33
13497;BMP180;6820;49.374;8.452;2024-02-26T05:28:56;98662.06;;;15.32
13497;BMP180;6820;49.374;8.452;2024-02-26T05:33:01;98665.53;;;15.37
13497;BMP180;6820;49.374;8.452;2024-02-26T05:37:03;98677.38;;;15.32
13497;BMP180;6820;49.374;8.452;2024-02-26T05:41:05;98687.56;;;15.32
13497;BMP180;6820;49.374;8.452;2024-02-26T05:45:07;98674.03;;;15.36
13497;BMP180;6820;49.374;8.452;2024-02-26T05:49:09;98691.88;;;15.33
13497;BMP180;6820;49.374;8.452;2024-02-26T05:53:11;98699.53;;;15.33
13497;BMP180;6820;49.374;8.452;2024-02-26T05:57:13;98704.59;;;15.30
13497;BMP180;6820;49.374;8.452;2024-02-26T06:01:15;98708.78;;;15.28
13497;BMP180;6820;49.374;8.452;2024-02-26T06:05:18;98722.41;;;15.27
13497;BMP180;6820;49.374;8.452;2024-02-26T06:09:20;98723.22;;;15.26
13497;BMP180;6820;49.374;8.452;2024-02-26T06:13:21;98741.06;;;15.25
13497;BMP180;6820;49.374;8.452;2024-02-26T06:17:23;98737.50;;;15.16
13497;BMP180;6820;49.374;8.452;2024-02-26T06:21:24;98751.72;;;15.05
13497;BMP180;6820;49.374;8.452;2024-02-26T06:25:26;98755.72;;;14.91
13497;BMP180;6820;49.374;8.452;2024-02-26T06:29:28;98765.03;;;14.89
13497;BMP180;6820;49.374;8.452;2024-02-26T06:33:30;98773.56;;;14.91
13497;BMP180;6820;49.374;8.452;2024-02-26T06:37:32;98771.03;;;14.92
13497;BMP180;6820;49.374;8.452;2024-02-26T06:41:34;98778.56;;;14.87
13497;BMP180;6820;49.374;8.452;2024-02-26T06:45:37;98785.25;;;14.80
13497;BMP180;6820;49.374;8.452;2024-02-26T06:49:39;98793.75;;;14.79
13497;BMP180;6820;49.374;8.452;2024-02-26T06:53:41;98793.00;;;14.85
13497;BMP180;6820;49.374;8.452;2024-02-26T06:57:43;98798.19;;;14.89
13497;BMP180;6820;49.374;8.452;2024-02-26T07:01:44;98788.97;;;14.97
13497;BMP180;6820;49.374;8.452;2024-02-26T07:05:46;98793.38;;;15.04
13497;BMP180;6820;49.374;8.452;2024-02-26T07:09:47;98793.50;;;15.10
13497;BMP180;6820;49.374;8.452;2024-02-26T07:13:49;98801.31;;;15.17
13497;BMP180;6820;49.374;8.452;2024-02-26T07:17:51;98802.16;;;15.19
13497;BMP180;6820;49.374;8.452;2024-02-26T07:21:53;98808.22;;;15.23
13497;BMP180;6820;49.374;8.452;2024-02-26T07:25:54;98809.13;;;15.26
13497;BMP180;6820;49.374;8.452;2024-02-26T07:29:56;98806.59;;;15.27
13497;BMP180;6820;49.374;8.452;2024-02-26T07:33:58;98804.97;;;15.32
13497;BMP180;6820;49.374;8.452;2024-02-26T07:38:00;98808.41;;;15.34
13497;BMP180;6820;49.374;8.452;2024-02-26T07:42:02;98809.41;;;15.42
13497;BMP180;6820;49.374;8.452;2024-02-26T07:46:04;98800.13;;;15.47
13497;BMP180;6820;49.374;8.452;2024-02-26T07:50:07;98805.22;;;15.47
13497;BMP180;6820;49.374;8.452;2024-02-26T07:54:09;98818.84;;;15.46
13497;BMP180;6820;49.374;8.452;2024-02-26T07:58:10;98817.00;;;15.39
13497;BMP180;6820;49.374;8.452;2024-02-26T08:02:12;98820.47;;;15.43
13497;BMP180;6820;49.374;8.452;2024-02-26T08:06:14;98818.97;;;15.55
13497;BMP180;6820;49.374;8.452;2024-02-26T08:10:15;98822.44;;;15.58
13497;BMP180;6820;49.374;8.452;2024-02-26T08:14:17;98820.88;;;15.65
13497;BMP180;6820;49.374;8.452;2024-02-26T08:18:19;98819.38;;;15.80
13497;BMP180;6820;49.374;8.452;2024-02-26T08:22:21;98831.50;;;15.91
13497;BMP180;6820;49.374;8.452;2024-02-26T08:26:22;98830.09;;;16.11
13497;BMP180;6820;49.374;8.452;2024-02-26T08:30:25;98821.78;;;16.21
13497;BMP180;6820;49.374;8.452;2024-02-26T08:34:27;98819.38;;;16.33
13497;BMP180;6820;49.374;8.452;2024-02-26T08:38:29;98828.03;;;16.44
13497;BMP180;6820;49.374;8.452;2024-02-26T08:42:30;98823.75;;;16.41
13497;BMP180;6820;49.374;8.452;2024-02-26T08:46:32;98828.06;;;16.46
13497;BMP180;6820;49.374;8.452;2024-02-26T08:50:34;98829.88;;;16.55
13497;BMP180;6820;49.374;8.452;2024-02-26T08:54:37;98845.41;;;16.68
13497;BMP180;6820;49.374;8.452;2024-02-26T08:58:38;98836.94;;;16.72
13497;BMP180;6820;49.374;8.452;2024-02-26T09:02:40;98835.34;;;16.80
13497;BMP180;6820;49.374;8.452;2024-02-26T09:06:44;98840.53;;;16.86
13497;BMP180;6820;49.374;8.452;2024-02-26T09:10:45;98839.72;;;16.88
13497;BMP180;6820;49.374;8.452;2024-02-26T09:14:47;98849.06;;;16.85
13497;BMP180;6820;49.374;8.452;2024-02-26T09:18:49;98843.94;;;16.85
13497;BMP180;6820;49.374;8.452;2024-02-26T09:22:50;98847.31;;;16.82
13497;BMP180;6820;49.374;8.452;2024-02-26T09:26:52;98856.69;;;16.83
13497;BMP180;6820;49.374;8.452;2024-02-26T09:30:54;98854.34;;;16.98
13497;BMP180;6820;49.374;8.452;2024-02-26T09:34:56;98849.47;;;17.19
13497;BMP180;6820;49.374;8.452;2024-02-26T09:38:57;98854.91;;;17.50
13497;BMP180;6820;49.374;8.452;2024-02-26T09:43:04;98850.03;;;17.76
13497;BMP180;6820;49.374;8.452;2024-02-26T09:47:08;98867.31;;;17.98
13497;BMP180;6820;49.374;8.452;2024-02-26T09:51:11;98871.69;;;18.08
13497;BMP180;6820;49.374;8.452;2024-02-26T09:55:13;98870.03;;;18.14
13497;BMP180;6820;49.374;8.452;2024-02-26T09:59:17;98869.88;;;18.01
13497;BMP180;6820;49.374;8.452;2024-02-26T10:03:21;98853.59;;;17.96
13497;BMP180;6820;49.374;8.452;2024-02-26T10:07:23;98863.06;;;18.00
13497;BMP180;6820;49.374;8.452;2024-02-26T10:11:25;98871.53;;;17.93
13497;BMP180;6820;49.374;8.452;2024-02-26T10:15:28;98865.56;;;17.94
13497;BMP180;6820;49.374;8.452;2024-02-26T10:19:30;98872.44;;;17.99
13497;BMP180;6820;49.374;8.452;2024-02-26T10:23:35;98878.53;;;18.12
13497;BMP180;6820;49.374;8.452;2024-02-26T10:27:37;98876.06;;;18.21
13497;BMP180;6820;49.374;8.452;2024-02-26T10:31:42;98870.03;;;18.16
13497;BMP180;6820;49.374;8.452;2024-02-26T10:35:47;98879.38;;;18.08
13497;BMP180;6820;49.374;8.452;2024-02-26T10:39:50;98888.75;;;18.04
13497;BMP180;6820;49.374;8.452;2024-02-26T10:43:51;98887.13;;;18.15
13497;BMP180;6820;49.374;8.452;2024-02-26T10:47:54;98891.44;;;18.22
13497;BMP180;6820;49.374;8.452;2024-02-26T10:51:56;98894.97;;;18.37
13497;BMP180;6820;49.374;8.452;2024-02-26T10:56:03;98895.91;;;18.50
13497;BMP180;6820;49.374;8.452;2024-02-26T11:00:07;98902.81;;;18.55
13497;BMP180;6820;49.374;8.452;2024-02-26T11:04:12;98894.28;;;18.62
13497;BMP180;6820;49.374;8.452;2024-02-26T11:08:19;98902.09;;;18.84
13497;BMP180;6820;49.374;8.452;2024-02-26T11:12:22;98910.78;;;19.01
13497;BMP180;6820;49.374;8.452;2024-02-26T11:16:25;98910.84;;;19.11
13497;BMP180;6820;49.374;8.452;2024-02-26T11:20:28;98910.00;;;19.20
13497;BMP180;6820;49.374;8.452;2024-02-26T11:24:31;98907.44;;;19.20
13497;BMP180;6820;49.374;8.452;2024-02-26T11:28:34;98896.34;;;19.34
13497;BMP180;6820;49.374;8.452;2024-02-26T11:32:37;98898.97;;;19.52
13497;BMP180;6820;49.374;8.452;2024-02-26T11:36:39;98921.28;;;19.70
13497;BMP180;6820;49.374;8.452;2024-02-26T11:40:41;98913.63;;;19.82
13497;BMP180;6820;49.374;8.452;2024-02-26T11:44:44;98906.78;;;19.93
13497;BMP180;6820;49.374;8.452;2024-02-26T11:48:46;98905.09;;;19.99
13497;BMP180;6820;49.374;8.452;2024-02-26T11:53:20;98909.34;;;20.12
13497;BMP180;6820;49.374;8.452;2024-02-26T11:57:38;98904.22;;;20.09
13497;BMP180;6820;49.374;8.452;2024-02-26T12:01:47;98910.22;;;20.02
13497;BMP180;6820;49.374;8.452;2024-02-26T12:05:51;98912.75;;;19.93
13497;BMP180;6820;49.374;8.452;2024-02-26T12:10:17;98920.50;;;19.95
13497;BMP180;6820;49.374;8.452;2024-02-26T12:14:26;98924.78;;;20.00
13497;BMP180;6820;49.374;8.452;2024-02-26T12:18:29;98918.75;;;19.91
13497;BMP180;6820;49.374;8.452;2024-02-26T12:22:32;98929.06;;;19.84
13497;BMP180;6820;49.374;8.452;2024-02-26T12:26:34;98938.47;;;19.82
13497;BMP180;6820;49.374;8.452;2024-02-26T12:30:36;98939.34;;;19.89
13497;BMP180;6820;49.374;8.452;2024-02-26T12:34:37;98932.50;;;20.19
13497;BMP180;6820;49.374;8.452;2024-02-26T12:38:39;98923.06;;;20.30
13497;BMP180;6820;49.374;8.452;2024-02-26T12:42:41;98922.22;;;20.37
13497;BMP180;6820;49.374;8.452;2024-02-26T12:46:43;98919.63;;;20.46
13497;BMP180;6820;49.374;8.452;2024-02-26T12:50:45;98923.91;;;20.54
13497;BMP180;6820;49.374;8.452;2024-02-26T12:54:49;98931.63;;;20.44
13497;BMP180;6820;49.374;8.452;2024-02-26T12:58:52;98938.50;;;20.27
13497;BMP180;6820;49.374;8.452;2024-02-26T13:02:55;98931.66;;;20.32
13497;BMP180;6820;49.374;8.452;2024-02-26T13:06:57;98936.78;;;20.53
13497;BMP180;6820;49.374;8.452;2024-02-26T13:11:05;98933.34;;;20.77
13497;BMP180;6820;49.374;8.452;2024-02-26T13:15:07;98935.88;;;20.95
13497;BMP180;6820;49.374;8.452;2024-02-26T13:19:09;98938.41;;;21.00
13497;BMP180;6820;49.374;8.452;2024-02-26T13:23:12;98939.31;;;20.84
13497;BMP180;6820;49.374;8.452;2024-02-26T13:27:21;98955.63;;;20.78
13497;BMP180;6820;49.374;8.452;2024-02-26T13:31:23;98952.22;;;20.75
13497;BMP180;6820;49.374;8.452;2024-02-26T13:35:25;98955.69;;;20.64
13497;BMP180;6820;49.374;8.452;2024-02-26T13:39:27;98956.53;;;20.58
13497;BMP180;6820;49.374;8.452;2024-02-26T13:43:29;98952.22;;;20.60
13497;BMP180;6820;49.374;8.452;2024-02-26T13:47:31;98959.94;;;20.81
13497;BMP180;6820;49.374;8.452;2024-02-26T13:51:35;98952.22;;;20.90
13497;BMP180;6820;49.374;8.452;2024-02-26T13:55:37;98959.84;;;21.18
13497;BMP180;6820;49.374;8.452;2024-02-26T13:59:39;98948.66;;;21.34
13497;BMP180;6820;49.374;8.452;2024-02-26T14:03:43;98953.78;;;21.37
13497;BMP180;6820;49.374;8.452;2024-02-26T14:07:45;98953.69;;;21.57
13497;BMP180;6820;49.374;8.452;2024-02-26T14:11:51;98954.47;;;21.71
13497;BMP180;6820;49.374;8.452;2024-02-26T14:15:53;98951.00;;;21.75
13497;BMP180;6820;49.374;8.452;2024-02-26T14:19:55;98954.41;;;21.81
13497;BMP180;6820;49.374;8.452;2024-02-26T14:23:56;98948.38;;;21.84
13497;BMP180;6820;49.374;8.452;2024-02-26T14:27:58;98949.00;;;22.21
13497;BMP180;6820;49.374;8.452;2024-02-26T14:32:00;98956.47;;;22.54
13497;BMP180;6820;49.374;8.452;2024-02-26T14:36:03;98955.38;;;22.83
13497;BMP180;6820;49.374;8.452;2024-02-26T14:40:05;98947.59;;;22.87
13497;BMP180;6820;49.374;8.452;2024-02-26T14:44:07;98939.09;;;22.70
13497;BMP180;6820;49.374;8.452;2024-02-26T14:48:09;98941.00;;;22.52
13497;BMP180;6820;49.374;8.452;2024-02-26T14:52:13;98952.22;;;22.48
13497;BMP180;6820;49.374;8.452;2024-02-26T14:56:15;98954.03;;;22.36
13497;BMP180;6820;49.374;8.452;2024-02-26T15:00:17;98969.75;;;22.03
13497;BMP180;6820;49.374;8.452;2024-02-26T15:04:19;98975.13;;;21.67
13497;BMP180;6820;49.374;8.452;2024-02-26T15:08:20;98979.53;;;21.39
13497;BMP180;6820;49.374;8.452;2024-02-26T15:12:22;98982.16;;;21.20
13497;BMP180;6820;49.374;8.452;2024-02-26T15:16:32;98986.47;;;21.08
13497;BMP180;6820;49.374;8.452;2024-02-26T15:20:34;98987.34;;;21.04
13497;BMP180;6820;49.374;8.452;2024-02-26T15:24:36;98993.34;;;21.09
13497;BMP180;6820;49.374;8.452;2024-02-26T15:28:39;98987.28;;;21.26
13497;BMP180;6820;49.374;8.452;2024-02-26T15:32:41;98997.56;;;21.44
13497;BMP180;6820;49.374;8.452;2024-02-26T15:36:44;99012.13;;;21.55
13497;BMP180;6820;49.374;8.452;2024-02-26T15:40:46;99012.09;;;21.67
13497;BMP180;6820;49.374;8.452;2024-02-26T15:44:48;99015.47;;;21.81
13497;BMP180;6820;49.374;8.452;2024-02-26T15:48:50;99017.22;;;21.68
13497;BMP180;6820;49.374;8.452;2024-02-26T15:52:52;99016.47;;;21.49
13497;BMP180;6820;49.374;8.452;2024-02-26T15:56:54;99019.91;;;21.38
13497;BMP180;6820;49.374;8.452;2024-02-26T16:00:56;99021.66;;;21.38
13497;BMP180;6820;49.374;8.452;2024-02-26T16:05:10;99025.09;;;21.36
13497;BMP180;6820;49.374;8.452;2024-02-26T16:09:14;99028.50;;;21.19
13497;BMP180;6820;49.374;8.452;2024-02-26T16:13:16;99044.03;;;21.01
13497;BMP180;6820;49.374;8.452;2024-02-26T16:17:30;99049.19;;;20.80
13497;BMP180;6820;49.374;8.452;2024-02-26T16:21:35;99046.59;;;20.63
13497;BMP180;6820;49.374;8.452;2024-02-26T16:25:37;99058.59;;;20.45
13497;BMP180;6820;49.374;8.452;2024-02-26T16:29:39;99056.84;;;20.27
13497;BMP180;6820;49.374;8.452;2024-02-26T16:33:40;99065.34;;;20.04
13497;BMP180;6820;49.374;8.452;2024-02-26T16:37:42;99075.56;;;19.79
13497;BMP180;6820;49.374;8.452;2024-02-26T16:41:44;99085.75;;;19.69
13497;BMP180;6820;49.374;8.452;2024-02-26T16:45:46;99084.81;;;19.53
13497;BMP180;6820;49.374;8.452;2024-02-26T16:49:49;99095.91;;;19.45
13497;BMP180;6820;49.374;8.452;2024-02-26T16:53:51;99106.16;;;19.39
13497;BMP180;6820;49.374;8.452;2024-02-26T16:57:53;99107.00;;;19.35
13497;BMP180;6820;49.374;8.452;2024-02-26T17:01:55;99111.25;;;19.33
13497;BMP180;6820;49.374;8.452;2024-02-26T17:05:58;99113.81;;;19.30
13497;BMP180;6820;49.374;8.452;2024-02-26T17:10:00;99122.28;;;19.18
13497;BMP180;6820;49.374;8.452;2024-02-26T17:14:02;99123.03;;;19.08
13497;BMP180;6820;49.374;8.452;2024-02-26T17:18:04;99137.56;;;19.01
13497;BMP180;6820;49.374;8.452;2024-02-26T17:22:13;99146.91;;;18.93
13497;BMP180;6820;49.374;8.452;2024-02-26T17:26:23;99152.00;;;18.91
13497;BMP180;6820;49.374;8.452;2024-02-26T17:30:25;99154.53;;;18.89
13497;BMP180;6820;49.374;8.452;2024-02-26T17:34:27;99159.63;;;18.86
13497;BMP180;6820;49.374;8.452;2024-02-26T17:38:29;99161.38;;;18.89
13497;BMP180;6820;49.374;8.452;2024-02-26T17:42:30;99172.50;;;18.88
13497;BMP180;6820;49.374;8.452;2024-02-26T17:46:35;99191.28;;;18.87
13497;BMP180;6820;49.374;8.452;2024-02-26T17:50:37;99191.28;;;18.85
13497;BMP180;6820;49.374;8.452;2024-02-26T17:54:39;99200.66;;;18.83
13497;BMP180;6820;49.374;8.452;2024-02-26T17:58:41;99215.19;;;18.80
13497;BMP180;6820;49.374;8.452;2024-02-26T18:02:43;99218.59;;;18.82
13497;BMP180;6820;49.374;8.452;2024-02-26T18:06:45;99227.19;;;18.82
13497;BMP180;6820;49.374;8.452;2024-02-26T18:10:50;99228.88;;;18.80
13497;BMP180;6820;49.374;8.452;2024-02-26T18:14:51;99240.00;;;18.81
13497;BMP180;6820;49.374;8.452;2024-02-26T18:18:53;99250.28;;;18.84
13497;BMP180;6820;49.374;8.452;2024-02-26T18:22:55;99252.84;;;18.81
13497;BMP180;6820;49.374;8.452;2024-02-26T18:26:57;99256.22;;;18.77
13497;BMP180;6820;49.374;8.452;2024-02-26T18:31:01;99262.22;;;18.79
13497;BMP180;6820;49.374;8.452;2024-02-26T18:35:03;99268.22;;;18.79
13497;BMP180;6820;49.374;8.452;2024-02-26T18:39:06;99273.28;;;18.73
13497;BMP180;6820;49.374;8.452;2024-02-26T18:43:11;99288.59;;;18.66
13497;BMP180;6820;49.374;8.452;2024-02-26T18:47:13;99295.34;;;18.60
13497;BMP180;6820;49.374;8.452;2024-02-26T18:51:14;99306.44;;;18.56
13497;BMP180;6820;49.374;8.452;2024-02-26T18:55:16;99316.63;;;18.51
13497;BMP180;6820;49.374;8.452;2024-02-26T18:59:18;99315.84;;;18.57
13497;BMP180;6820;49.374;8.452;2024-02-26T19:03:20;99328.66;;;18.55
13497;BMP180;6820;49.374;8.452;2024-02-26T19:07:22;99344.00;;;18.52
13497;BMP180;6820;49.374;8.452;2024-02-26T19:11:25;99344.00;;;18.52
13497;BMP180;6820;49.374;8.452;2024-02-26T19:15:26;99345.69;;;18.50
13497;BMP180;6820;49.374;8.452;2024-02-26T19:19:29;99351.69;;;18.51
13497;BMP180;6820;49.374;8.452;2024-02-26T19:23:32;99318.41;;;18.57
13497;BMP180;6820;49.374;8.452;2024-02-26T19:27:35;99361.13;;;18.53
13497;BMP180;6820;49.374;8.452;2024-02-26T19:31:37;99361.06;;;18.47
13497;BMP180;6820;49.374;8.452;2024-02-26T19:35:39;99373.03;;;18.50
13497;BMP180;6820;49.374;8.452;2024-02-26T19:39:40;99376.34;;;18.41
13497;BMP180;6820;49.374;8.452;2024-02-26T19:43:42;99394.34;;;18.44
13497;BMP180;6820;49.374;8.452;2024-02-26T19:47:44;99392.66;;;18.45
13497;BMP180;6820;49.374;8.452;2024-02-26T19:51:48;99409.69;;;18.41
13497;BMP180;6820;49.374;8.452;2024-02-26T19:55:51;99420.75;;;18.37
13497;BMP180;6820;49.374;8.452;2024-02-26T19:59:52;99417.22;;;18.31
13497;BMP180;6820;49.374;8.452;2024-02-26T20:03:54;99427.38;;;18.24
13497;BMP180;6820;49.374;8.452;2024-02-26T20:07:56;99431.63;;;18.22
13497;BMP180;6820;49.374;8.452;2024-02-26T20:11:58;99439.31;;;18.22
13497;BMP180;6820;49.374;8.452;2024-02-26T20:16:03;99441.75;;;18.14
13497;BMP180;6820;49.374;8.452;2024-02-26T20:20:06;99452.91;;;18.16
13497;BMP180;6820;49.374;8.452;2024-02-26T20:24:08;99455.50;;;18.19
13497;BMP180;6820;49.374;8.452;2024-02-26T20:28:10;99458.91;;;18.18
13497;BMP180;6820;49.374;8.452;2024-02-26T20:32:12;99460.56;;;18.15
13497;BMP180;6820;49.374;8.452;2024-02-26T20:36:13;99477.69;;;18.16
13497;BMP180;6820;49.374;8.452;2024-02-26T20:40:15;99474.31;;;18.18
13497;BMP180;6820;49.374;8.452;2024-02-26T20:44:21;99495.72;;;18.22
13497;BMP180;6820;49.374;8.452;2024-02-26T20:48:23;99496.63;;;18.24
13497;BMP180;6820;49.374;8.452;2024-02-26T20:52:26;99497.47;;;18.24
13497;BMP180;6820;49.374;8.452;2024-02-26T20:56:28;99496.50;;;18.18
13497;BMP180;6820;49.374;8.452;2024-02-26T21:00:30;99505.00;;;18.14
13497;BMP180;6820;49.374;8.452;2024-02-26T21:04:31;99504.84;;;18.05
13497;BMP180;6820;49.374;8.452;2024-02-26T21:08:34;99507.97;;;17.92
13497;BMP180;6820;49.374;8.452;2024-02-26T21:12:39;99517.13;;;17.80
13497;BMP180;6820;49.374;8.452;2024-02-26T21:16:40;99511.81;;;17.69
13497;BMP180;6820;49.374;8.452;2024-02-26T21:20:42;99512.44;;;17.57
13497;BMP180;6820;49.374;8.452;2024-02-26T21:24:44;99511.47;;;17.52
13497;BMP180;6820;49.374;8.452;2024-02-26T21:28:45;99508.13;;;17.56
13497;BMP180;6820;49.374;8.452;2024-02-26T21:32:47;99523.47;;;17.54
13497;BMP180;6820;49.374;8.452;2024-02-26T21:36:49;99544.19;;;17.65
13497;BMP180;6820;49.374;8.452;2024-02-26T21:40:50;99551.25;;;17.77
13497;BMP180;6820;49.374;8.452;2024-02-26T21:44:52;99554.72;;;17.78
13497;BMP180;6820;49.374;8.452;2024-02-26T21:48:54;99558.09;;;17.77
13497;BMP180;6820;49.374;8.452;2024-02-26T21:52:55;99551.94;;;17.68
13497;BMP180;6820;49.374;8.452;2024-02-26T21:56:57;99555.88;;;17.52
13497;BMP180;6820;49.374;8.452;2024-02-26T22:00:59;99565.00;;;17.40
13497;BMP180;6820;49.374;8.452;2024-02-26T22:05:01;99568.94;;;17.25
13497;BMP180;6820;49.374;8.452;2024-02-26T22:09:03;99573.09;;;17.20
13497;BMP180;6820;49.374;8.452;2024-02-26T22:13:05;99591.94;;;17.23
13497;BMP180;6820;49.374;8.452;2024-02-26T22:17:07;99596.38;;;17.30
13497;BMP180;6820;49.374;8.452;2024-02-26T22:21:08;99611.97;;;17.40
13497;BMP180;6820;49.374;8.452;2024-02-26T22:25:11;99624.13;;;17.49
13497;BMP180;6820;49.374;8.452;2024-02-26T22:29:12;99626.03;;;17.59
13497;BMP180;6820;49.374;8.452;2024-02-26T22:33:14;99627.72;;;17.58
13497;BMP180;6820;49.374;8.452;2024-02-26T22:37:16;99631.03;;;17.53
13497;BMP180;6820;49.374;8.452;2024-02-26T22:41:18;99629.31;;;17.53
13497;BMP180;6820;49.374;8.452;2024-02-26T22:45:20;99642.78;;;17.45
13497;BMP180;6820;49.374;8.452;2024-02-26T22:49:21;99647.91;;;17.43
13497;BMP180;6820;49.374;8.452;2024-02-26T22:53:23;99652.72;;;17.30
13497;BMP180;6820;49.374;8.452;2024-02-26T22:57:25;99658.47;;;17.22
13497;BMP180;6820;49.374;8.452;2024-02-26T23:01:27;99661.84;;;17.19
13497;BMP180;6820;49.374;8.452;2024-02-26T23:05:29;99671.84;;;17.10
13497;BMP180;6820;49.374;8.452;2024-02-26T23:09:31;99677.41;;;16.95
13497;BMP180;6820;49.374;8.452;2024-02-26T23:13:32;99678.91;;;16.87
13497;BMP180;6820;49.374;8.452;2024-02-26T23:17:34;99673.56;;;16.78
13497;BMP180;6820;49.374;8.452;2024-02-26T23:21:36;99665.47;;;16.62
13497;BMP180;6820;49.374;8.452;2024-02-26T23:25:40;99669.31;;;16.46
13497;BMP180;6820;49.374;8.452;2024-02-26T23:29:42;99661.34;;;16.35
13497;BMP180;6820;49.374;8.452;2024-02-26T23:33:43;99668.00;;;16.30
13497;BMP180;6820;49.374;8.452;2024-02-26T23:37:45;99667.09;;;16.28